Terminal Aerodrome Forecast
Issued by NWS Jackson, MS

Home | Current Version | Previous Version | Text Only | Print | Product List | Glossary On
Versions: 1 2 3 4 5 6 7 8 9 10 11 12 13 14 15 16 17 18 19 20 21 22 23 24 25 26 27
000
FTUS44 KMEG 240520
TAFTUP
TAF
KTUP 240520Z 2406/2506 02007KT P6SM -SHRA VCTS SCT015CB BKN025
      TEMPO 2406/2407 VRB10G20KT 2SM +TSRA BKN015CB
     FM240700 02012KT P6SM VCSH BKN012
     FM241300 02010KT P6SM OVC009
     FM241600 03008KT P6SM BKN015
     FM250100 03004KT P6SM OVC008=

USA.gov is the U.S. government's official web portal to all federal, state and local government web resources and services.